Joint Base Elmendorf-Richardson, Alaska
Current Conditions -  °F | °C
As of 9:58 PM on Saturday 25 Oct 2014 (Local Time) from PAED Reporting Station
Overcast Overcast  
Wind Chill: 28°   Ceiling: 4800
Heat Index: 28°   Visibility: 10mi
Dew Point: 25°   Wind: 0mph
Humidity: 88%   Direction: NA
Pressure: 29.81"   Gusts: NA
Location:  61.25°N, 149.81°W
Report Text: PAED 260558Z AUTO 00000KT 10SM OVC048 M02/M04 A2981 RMK AO2 SLP092 T10221040 10016 21025 58003 $
Loading
Personal Weather Stations






























Interactive Weather Map
Tropical Storm Tracking
New forecast layout! Learn more

10-Day Weather Forecast

Advertisements
Track Severe Weather on mobile